Time;durP1;ratioP1;P1;durP2;ratioP2;P2;SDS_P1;SDS_P2;PMS_P1;PMS_P2;Temp;Humidity;BMP_temperature;BMP_pressure;BME280_temperature;BME280_humidity;BME280_pressure;Samples;Min_cycle;Max_cycle;Signal;HPM_P1;HPM_P2
2022/03/04 00:00:00;;;;;;;20.30;10.85;;;0.90;99.90;;;;;;5017278;28;20050;-78
2022/03/04 00:02:26;;;;;;;19.60;10.60;;;1.50;99.90;;;;;;5016439;28;20049;-77
2022/03/04 00:04:53;;;;;;;23.08;11.48;;;1.20;99.90;;;;;;5023549;28;20340;-78
2022/03/04 00:07:19;;;;;;;19.98;11.35;;;2.00;99.90;;;;;;5020019;28;20038;-78
2022/03/04 00:09:45;;;;;;;17.95;10.25;;;1.10;99.90;;;;;;5017225;28;20052;-78
2022/03/04 00:12:10;;;;;;;20.10;11.13;;;1.40;99.90;;;;;;5022887;28;20050;-78
2022/03/04 00:14:36;;;;;;;19.58;11.55;;;0.80;99.90;;;;;;5004853;28;20871;-78
2022/03/04 00:17:02;;;;;;;18.02;10.70;;;1.80;99.90;;;;;;4987560;28;20136;-77
2022/03/04 00:19:28;;;;;;;19.98;11.60;;;0.70;99.90;;;;;;5018058;28;20061;-78
2022/03/04 00:21:54;;;;;;;19.25;10.60;;;1.70;99.90;;;;;;5005859;28;20135;-78
2022/03/04 00:24:22;;;;;;;20.77;10.90;;;1.00;99.90;;;;;;5018548;28;20060;-78
2022/03/04 00:26:48;;;;;;;19.77;10.90;;;0.60;99.90;;;;;;5002805;28;20053;-78
2022/03/04 00:29:14;;;;;;;21.35;11.00;;;1.20;99.90;;;;;;5035079;28;20038;-77
2022/03/04 00:31:41;;;;;;;20.73;10.82;;;0.90;99.90;;;;;;5018029;28;20118;-78
2022/03/04 00:34:08;;;;;;;22.17;11.20;;;0.50;99.90;;;;;;5017926;28;20046;-78
2022/03/04 00:36:35;;;;;;;20.60;10.70;;;0.80;99.90;;;;;;5006321;28;20517;-78
2022/03/04 00:39:04;;;;;;;22.35;11.82;;;0.50;99.90;;;;;;5018386;28;20049;-76
2022/03/04 00:41:30;;;;;;;20.80;11.43;;;1.60;99.90;;;;;;5005733;28;20220;-76
2022/03/04 00:43:56;;;;;;;21.20;11.70;;;1.60;99.90;;;;;;5006086;28;20056;-76
2022/03/04 00:46:22;;;;;;;22.80;11.70;;;0.40;99.90;;;;;;5005147;28;20053;-76
2022/03/04 00:48:47;;;;;;;19.45;10.77;;;0.40;99.90;;;;;;5035557;28;20057;-76
2022/03/04 00:51:14;;;;;;;21.23;11.73;;;1.60;99.90;;;;;;5005740;28;20038;-76
2022/03/04 00:53:43;;;;;;;21.88;11.07;;;1.70;99.90;;;;;;5025294;28;20042;-76
2022/03/04 00:56:11;;;;;;;17.67;10.18;;;1.40;99.90;;;;;;5017516;28;20045;-76
2022/03/04 00:58:38;;;;;;;21.33;11.80;;;0.20;99.90;;;;;;5008507;28;20057;-76
2022/03/04 01:01:05;;;;;;;21.40;11.45;;;1.50;99.90;;;;;;5018456;28;20034;-76
2022/03/04 01:03:31;;;;;;;21.35;11.38;;;0.20;99.90;;;;;;5018370;28;20052;-76
2022/03/04 01:05:58;;;;;;;22.92;11.38;;;0.10;99.90;;;;;;5005832;28;20057;-76
2022/03/04 01:08:24;;;;;;;20.67;11.25;;;0.10;99.90;;;;;;5017216;28;20053;-76
2022/03/04 01:10:49;;;;;;;21.70;11.25;;;0.10;99.90;;;;;;5034286;28;20041;-76
2022/03/04 01:13:16;;;;;;;19.05;10.55;;;1.60;99.90;;;;;;5015339;28;20046;-76
2022/03/04 01:15:41;;;;;;;20.30;11.15;;;0.10;99.90;;;;;;5004944;28;20061;-76
2022/03/04 01:18:07;;;;;;;19.52;10.27;;;0.10;99.90;;;;;;5025597;28;20053;-76
2022/03/04 01:20:33;;;;;;;19.42;10.48;;;0.00;99.90;;;;;;5009675;28;20053;-76
2022/03/04 01:22:59;;;;;;;21.10;10.65;;;0.00;99.90;;;;;;5011678;28;20084;-76
2022/03/04 01:25:25;;;;;;;23.30;12.63;;;1.50;99.90;;;;;;5019029;28;20038;-75
2022/03/04 01:27:51;;;;;;;20.75;10.93;;;0.00;99.90;;;;;;4999909;28;20570;-75
2022/03/04 01:30:18;;;;;;;18.85;10.55;;;0.00;99.90;;;;;;5018658;28;20077;-75
2022/03/04 01:32:45;;;;;;;20.73;10.60;;;1.30;99.90;;;;;;5017324;28;20120;-76
2022/03/04 01:35:10;;;;;;;21.55;10.88;;;0.10;99.90;;;;;;5036461;28;20046;-76
2022/03/04 01:37:36;;;;;;;16.77;10.00;;;0.00;99.90;;;;;;5016331;28;20053;-75
2022/03/04 01:40:04;;;;;;;17.85;10.13;;;-0.10;99.90;;;;;;4986922;28;20502;-75
2022/03/04 01:42:30;;;;;;;18.02;9.50;;;-0.10;99.90;;;;;;5008677;28;20042;-75
2022/03/04 01:44:56;;;;;;;17.88;10.00;;;1.40;99.90;;;;;;5008164;28;20064;-76
2022/03/04 01:47:22;;;;;;;18.73;10.18;;;1.00;99.90;;;;;;5016567;28;20046;-76
2022/03/04 01:49:47;;;;;;;17.88;9.77;;;0.80;99.90;;;;;;4998150;28;20037;-76
2022/03/04 01:52:13;;;;;;;16.17;9.00;;;0.40;99.90;;;;;;5001899;28;20067;-75
2022/03/04 01:54:39;;;;;;;18.73;9.73;;;-0.10;99.90;;;;;;4983549;28;20045;-76
2022/03/04 01:57:05;;;;;;;17.58;9.45;;;0.80;99.90;;;;;;5024394;28;20042;-75
2022/03/04 01:59:31;;;;;;;16.85;9.25;;;-0.10;99.90;;;;;;5015102;28;20061;-75
2022/03/04 02:01:57;;;;;;;18.98;10.70;;;-0.10;99.90;;;;;;5013099;28;20135;-75
2022/03/04 02:04:24;;;;;;;18.77;9.60;;;0.70;99.90;;;;;;5019815;28;20373;-75
2022/03/04 02:06:50;;;;;;;18.98;10.05;;;0.20;99.90;;;;;;5012456;28;20124;-76
2022/03/04 02:09:16;;;;;;;17.70;9.65;;;0.70;99.90;;;;;;5032757;28;20053;-75
2022/03/04 02:11:44;;;;;;;19.15;9.30;;;-0.20;99.90;;;;;;5007415;28;20095;-76
2022/03/04 02:14:11;;;;;;;17.13;9.07;;;0.10;99.90;;;;;;4998048;28;20049;-76
2022/03/04 02:16:46;;;;;;;16.45;8.98;;;1.30;99.90;;;;;;5012877;28;20161;-76
2022/03/04 02:19:13;;;;;;;16.40;8.75;;;0.20;99.90;;;;;;5030636;28;20057;-76
2022/03/04 02:21:53;;;;;;;17.25;9.27;;;1.10;99.90;;;;;;5003899;28;20049;-76
2022/03/04 02:24:22;;;;;;;15.18;8.75;;;-0.20;99.90;;;;;;5018253;28;20073;-76
2022/03/04 02:26:48;;;;;;;15.25;8.43;;;0.40;99.90;;;;;;5009043;28;20136;-76
2022/03/04 02:29:15;;;;;;;17.92;9.35;;;-0.30;99.90;;;;;;4998537;28;20053;-76
2022/03/04 02:31:41;;;;;;;15.45;8.35;;;-0.30;99.90;;;;;;5015186;28;20044;-76
2022/03/04 02:34:07;;;;;;;14.02;8.13;;;-0.30;99.90;;;;;;5007163;28;20033;-75
2022/03/04 02:36:33;;;;;;;15.52;8.80;;;0.60;99.90;;;;;;5009150;28;20053;-76
2022/03/04 02:38:59;;;;;;;15.57;9.43;;;1.20;99.90;;;;;;5018503;28;20041;-76
2022/03/04 02:41:25;;;;;;;18.40;8.68;;;-0.40;99.90;;;;;;5016166;28;20063;-75
2022/03/04 02:43:51;;;;;;;14.90;8.88;;;0.30;99.90;;;;;;5000270;28;20045;-76
2022/03/04 02:46:17;;;;;;;15.68;7.70;;;0.80;99.90;;;;;;5015785;28;20491;-75
2022/03/04 02:48:42;;;;;;;19.95;8.65;;;1.30;99.90;;;;;;4999995;28;20088;-76
2022/03/04 02:51:08;;;;;;;17.08;9.27;;;0.80;99.90;;;;;;5015413;28;20052;-76
2022/03/04 02:53:34;;;;;;;15.57;8.55;;;-0.20;99.90;;;;;;5014727;28;20045;-75
2022/03/04 02:56:00;;;;;;;13.80;8.10;;;0.40;99.90;;;;;;5015803;28;20447;-76
2022/03/04 02:58:26;;;;;;;14.18;7.57;;;0.80;99.90;;;;;;4999323;28;20064;-76
2022/03/04 03:00:51;;;;;;;13.75;8.10;;;-0.40;99.90;;;;;;5013944;28;20056;-76
2022/03/04 03:03:17;;;;;;;16.98;8.40;;;-0.60;99.90;;;;;;5014467;28;20050;-76
2022/03/04 03:05:43;;;;;;;13.60;7.93;;;0.00;99.90;;;;;;5015887;28;20073;-76
2022/03/04 03:08:09;;;;;;;13.52;7.18;;;0.80;99.90;;;;;;5001864;28;20041;-76
2022/03/04 03:10:35;;;;;;;13.43;7.47;;;0.10;99.90;;;;;;5001388;28;20100;-76
2022/03/04 03:13:01;;;;;;;14.63;8.05;;;0.90;99.90;;;;;;5031051;28;20076;-76
2022/03/04 03:15:27;;;;;;;13.30;7.50;;;-0.80;99.90;;;;;;5003258;28;20058;-76
2022/03/04 03:17:54;;;;;;;12.85;7.68;;;-0.40;99.90;;;;;;5023179;28;20467;-76
2022/03/04 03:20:20;;;;;;;14.55;7.75;;;-0.50;99.90;;;;;;5017063;28;20064;-76
2022/03/04 03:22:45;;;;;;;12.88;7.35;;;0.20;99.90;;;;;;5021142;28;20038;-76
2022/03/04 03:25:12;;;;;;;13.43;7.47;;;-0.80;99.90;;;;;;5015022;28;20071;-75
2022/03/04 03:27:38;;;;;;;13.52;7.35;;;0.50;99.90;;;;;;5029035;28;20064;-76
2022/03/04 03:30:06;;;;;;;13.57;7.60;;;-0.10;99.90;;;;;;5029454;28;20088;-76
2022/03/04 03:32:32;;;;;;;14.05;7.15;;;-0.80;99.90;;;;;;5014941;28;20037;-75
2022/03/04 03:34:58;;;;;;;16.25;7.55;;;-0.80;99.90;;;;;;5015226;28;20076;-76
2022/03/04 03:37:24;;;;;;;13.25;7.65;;;0.70;99.90;;;;;;5002375;28;20049;-76
2022/03/04 03:39:50;;;;;;;16.73;8.50;;;-0.80;99.90;;;;;;4997808;28;20910;-76
2022/03/04 03:42:16;;;;;;;15.70;7.35;;;-0.50;99.90;;;;;;5012910;28;20046;-76
2022/03/04 03:44:41;;;;;;;13.55;7.70;;;-0.70;99.90;;;;;;4999376;28;20045;-76
2022/03/04 03:47:09;;;;;;;14.57;8.13;;;-0.70;99.90;;;;;;5015824;28;20044;-75
2022/03/04 03:49:36;;;;;;;15.13;7.90;;;-0.70;99.90;;;;;;5015155;28;20495;-76
2022/03/04 03:52:02;;;;;;;16.52;8.05;;;0.90;99.90;;;;;;5012631;28;20110;-76
2022/03/04 03:54:28;;;;;;;17.42;8.25;;;-0.70;99.90;;;;;;5007235;28;20541;-76
2022/03/04 03:56:53;;;;;;;16.10;8.57;;;-1.00;99.90;;;;;;5000702;28;20057;-76
2022/03/04 03:59:19;;;;;;;14.70;8.30;;;-0.70;99.90;;;;;;4997077;28;20045;-76
2022/03/04 04:01:45;;;;;;;15.18;7.88;;;-0.10;99.90;;;;;;5001041;28;20120;-76
2022/03/04 04:04:12;;;;;;;14.45;8.05;;;0.10;99.90;;;;;;4995905;28;20045;-75
2022/03/04 04:06:39;;;;;;;14.32;8.05;;;0.40;99.90;;;;;;4996145;28;20046;-75
2022/03/04 04:09:05;;;;;;;14.40;7.90;;;-0.80;99.90;;;;;;5027705;28;20165;-75
2022/03/04 04:11:35;;;;;;;15.88;8.50;;;-0.80;99.90;;;;;;5013342;28;20402;-75
2022/03/04 04:14:05;;;;;;;15.18;8.57;;;-0.80;99.90;;;;;;4995519;28;20049;-75
2022/03/04 04:16:31;;;;;;;14.43;7.80;;;-0.80;99.90;;;;;;5013847;28;20069;-75
2022/03/04 04:18:57;;;;;;;17.27;9.13;;;-0.80;99.90;;;;;;5014249;28;20038;-77
2022/03/04 04:21:24;;;;;;;14.75;8.20;;;-0.80;99.90;;;;;;5026709;28;20056;-77
2022/03/04 04:23:51;;;;;;;13.85;8.13;;;-0.80;99.90;;;;;;5014043;28;20116;-77
2022/03/04 04:26:17;;;;;;;15.05;7.97;;;-0.80;99.90;;;;;;5011858;28;20054;-77
2022/03/04 04:28:42;;;;;;;15.98;8.52;;;-0.90;99.90;;;;;;5022808;28;20053;-77
2022/03/04 04:31:08;;;;;;;16.25;8.60;;;-0.80;99.90;;;;;;5011900;28;20066;-75
2022/03/04 04:33:34;;;;;;;15.35;8.25;;;-0.90;99.90;;;;;;5012663;28;20053;-76
2022/03/04 04:36:00;;;;;;;15.23;8.55;;;0.50;99.90;;;;;;5013738;28;20051;-75
2022/03/04 04:38:25;;;;;;;15.38;8.65;;;-0.20;99.90;;;;;;5015571;28;20050;-75
2022/03/04 04:40:51;;;;;;;16.55;9.15;;;-0.10;99.90;;;;;;5001182;28;20049;-76
2022/03/04 04:43:17;;;;;;;16.17;7.78;;;-0.90;99.90;;;;;;5009951;28;20116;-75
2022/03/04 04:45:43;;;;;;;16.63;8.80;;;-0.90;99.90;;;;;;5019742;28;20415;-75
2022/03/04 04:48:08;;;;;;;14.85;8.18;;;-0.50;99.90;;;;;;5000518;28;20777;-75
2022/03/04 04:50:34;;;;;;;16.17;8.38;;;-1.00;99.90;;;;;;5002840;28;20050;-75
2022/03/04 04:53:00;;;;;;;15.55;8.48;;;0.10;99.90;;;;;;5017671;28;20395;-75
2022/03/04 04:55:25;;;;;;;17.77;9.15;;;-1.00;99.90;;;;;;5035361;28;20049;-76
2022/03/04 04:57:51;;;;;;;15.68;8.50;;;-1.00;99.90;;;;;;5017052;28;20497;-76
2022/03/04 05:00:17;;;;;;;16.08;7.57;;;-0.80;99.90;;;;;;5001698;28;20502;-76
2022/03/04 05:02:44;;;;;;;17.30;8.55;;;-1.10;99.90;;;;;;5017873;28;20124;-76
2022/03/04 05:05:10;;;;;;;16.50;8.57;;;-0.10;99.90;;;;;;5017524;28;20045;-75
2022/03/04 05:07:37;;;;;;;13.02;7.68;;;-1.10;99.90;;;;;;5033697;28;20050;-75
2022/03/04 05:10:04;;;;;;;15.45;8.95;;;-1.10;99.90;;;;;;5018044;28;20169;-76
2022/03/04 05:12:29;;;;;;;19.25;9.00;;;-1.10;99.90;;;;;;5034699;28;20099;-75
2022/03/04 05:14:55;;;;;;;16.48;8.77;;;0.40;99.90;;;;;;4999952;28;20046;-76
2022/03/04 05:17:21;;;;;;;16.48;8.90;;;-1.10;99.90;;;;;;5031892;28;20050;-75
2022/03/04 05:19:47;;;;;;;17.30;8.63;;;-1.20;99.90;;;;;;5017480;28;20096;-75
2022/03/04 05:22:13;;;;;;;15.27;8.30;;;-1.20;99.90;;;;;;5005927;28;20053;-75
2022/03/04 05:24:39;;;;;;;17.02;8.18;;;-0.70;99.90;;;;;;5034410;28;20056;-75
2022/03/04 05:27:04;;;;;;;15.85;8.38;;;0.40;99.90;;;;;;5004811;28;20053;-76
2022/03/04 05:29:30;;;;;;;18.65;8.40;;;-1.30;99.90;;;;;;5016768;28;20084;-75
2022/03/04 05:31:56;;;;;;;15.32;8.52;;;-1.30;99.90;;;;;;4997650;28;20429;-75
2022/03/04 05:34:21;;;;;;;14.35;8.55;;;-0.90;99.90;;;;;;5016047;28;20045;-75
2022/03/04 05:36:47;;;;;;;15.00;7.75;;;-1.30;99.90;;;;;;5016966;28;20507;-77
2022/03/04 05:39:13;;;;;;;17.63;9.55;;;0.50;99.90;;;;;;5017422;28;20056;-77
2022/03/04 05:41:39;;;;;;;16.52;8.60;;;-1.20;99.90;;;;;;5018967;28;20057;-77
2022/03/04 05:44:05;;;;;;;17.58;9.52;;;-1.40;99.90;;;;;;5009651;28;20051;-77
2022/03/04 05:46:32;;;;;;;15.02;8.38;;;-1.50;99.90;;;;;;5004880;28;20060;-77
2022/03/04 05:48:58;;;;;;;16.13;8.00;;;-1.50;99.90;;;;;;5008838;28;20053;-77
2022/03/04 05:51:23;;;;;;;14.88;8.50;;;-0.10;99.90;;;;;;5001370;28;20049;-77
2022/03/04 05:53:51;;;;;;;19.60;9.32;;;-1.50;99.90;;;;;;5002210;28;20038;-77
2022/03/04 05:56:18;;;;;;;18.42;8.30;;;-1.50;99.90;;;;;;5001732;28;20060;-77
2022/03/04 05:58:44;;;;;;;15.60;8.48;;;-1.10;99.90;;;;;;5016015;28;20052;-77
2022/03/04 06:01:10;;;;;;;17.83;8.77;;;0.20;99.90;;;;;;5004622;28;20041;-76
2022/03/04 06:03:36;;;;;;;16.75;8.48;;;-1.60;99.90;;;;;;5004522;28;20084;-75
2022/03/04 06:06:03;;;;;;;16.65;9.57;;;-0.80;99.90;;;;;;5015756;28;20077;-76
2022/03/04 06:08:29;;;;;;;16.15;8.50;;;-1.60;99.90;;;;;;5015528;28;20048;-76
2022/03/04 06:10:55;;;;;;;16.30;8.52;;;-0.20;99.90;;;;;;5016467;28;20045;-75
2022/03/04 06:13:21;;;;;;;19.08;9.43;;;-1.70;99.90;;;;;;5003489;28;20052;-74
2022/03/04 06:15:47;;;;;;;16.85;8.38;;;-0.60;99.90;;;;;;4999666;28;20093;-74
2022/03/04 06:18:13;;;;;;;18.70;9.25;;;0.10;99.90;;;;;;5012160;28;20061;-76
2022/03/04 06:20:38;;;;;;;17.20;9.27;;;-1.70;99.90;;;;;;4988111;28;20178;-77
2022/03/04 06:23:04;;;;;;;19.42;9.38;;;-1.70;99.90;;;;;;5015351;28;20045;-76
2022/03/04 06:25:30;;;;;;;16.58;8.75;;;-2.40;99.90;;;;;;5015265;28;20096;-76
2022/03/04 06:28:01;;;;;;;17.60;9.13;;;-1.40;99.90;;;;;;5012739;28;20125;-76
2022/03/04 06:30:30;;;;;;;16.30;8.98;;;-1.70;99.90;;;;;;5015183;28;20078;-76
2022/03/04 06:35:42;;;;;;;17.50;9.60;;;-0.60;99.90;;;;;;5015377;28;20050;-76
2022/03/04 06:38:09;;;;;;;17.27;9.80;;;-1.80;99.90;;;;;;5015058;28;20045;-76
2022/03/04 06:40:35;;;;;;;16.80;8.60;;;-1.80;99.90;;;;;;5000262;28;20153;-76
2022/03/04 06:43:00;;;;;;;19.08;10.10;;;-0.70;99.90;;;;;;5000262;28;20136;-76
2022/03/04 06:45:26;;;;;;;16.73;8.88;;;-1.40;99.90;;;;;;5014804;28;20128;-76
2022/03/04 06:47:52;;;;;;;15.70;8.73;;;-0.20;99.90;;;;;;5015657;28;20424;-76
2022/03/04 06:50:18;;;;;;;17.95;8.75;;;-1.70;99.90;;;;;;5001744;28;20099;-76
2022/03/04 06:52:44;;;;;;;20.35;9.75;;;-1.20;99.90;;;;;;5030938;28;20372;-76
2022/03/04 06:55:11;;;;;;;20.05;9.23;;;-1.40;99.90;;;;;;5006616;28;20053;-76
2022/03/04 06:57:37;;;;;;;20.38;9.93;;;-1.10;99.90;;;;;;5015680;28;20048;-75
2022/03/04 07:00:07;;;;;;;18.17;9.43;;;-1.60;99.90;;;;;;5014888;28;20575;-75
2022/03/04 07:02:34;;;;;;;15.40;8.65;;;-1.70;99.90;;;;;;5008200;28;20103;-75
2022/03/04 07:05:02;;;;;;;16.48;9.20;;;-1.70;99.90;;;;;;5016801;28;20053;-75
2022/03/04 07:07:28;;;;;;;22.52;9.85;;;-2.10;99.90;;;;;;5015542;28;20132;-75
2022/03/04 07:09:54;;;;;;;15.63;9.02;;;-0.50;99.90;;;;;;5004184;28;20132;-76
2022/03/04 07:12:19;;;;;;;21.00;8.82;;;-1.60;99.90;;;;;;5015667;28;20037;-76
2022/03/04 07:14:46;;;;;;;20.58;10.75;;;-0.10;99.90;;;;;;5007469;28;20543;-77
2022/03/04 07:17:12;;;;;;;19.13;10.00;;;-1.20;99.90;;;;;;5001764;28;20057;-77
2022/03/04 07:19:38;;;;;;;16.88;9.73;;;0.20;99.90;;;;;;5018949;28;20538;-77
2022/03/04 07:22:04;;;;;;;19.15;10.75;;;0.00;99.90;;;;;;5016801;28;20051;-76
2022/03/04 07:24:30;;;;;;;19.05;10.07;;;-1.50;99.90;;;;;;4983961;28;20056;-77
2022/03/04 07:26:56;;;;;;;19.85;9.35;;;0.50;99.90;;;;;;4998302;28;20098;-76
2022/03/04 07:29:22;;;;;;;17.20;9.40;;;0.60;99.90;;;;;;4983333;28;20049;-77
2022/03/04 07:31:48;;;;;;;18.20;9.43;;;-0.80;99.90;;;;;;4991258;28;20609;-76
2022/03/04 07:34:14;;;;;;;17.30;9.88;;;-1.40;99.90;;;;;;4998621;28;20121;-77
2022/03/04 07:36:39;;;;;;;18.67;10.02;;;0.00;99.90;;;;;;5008535;28;20111;-75
2022/03/04 07:39:05;;;;;;;18.85;10.30;;;-0.80;99.90;;;;;;5012757;28;20134;-75
2022/03/04 07:41:31;;;;;;;17.90;9.90;;;-1.30;99.90;;;;;;5030316;28;20057;-75
2022/03/04 07:43:59;;;;;;;18.83;9.25;;;-1.20;99.90;;;;;;5000794;28;20049;-75
2022/03/04 07:46:27;;;;;;;19.83;10.77;;;-1.20;99.90;;;;;;5023682;28;20045;-74
2022/03/04 07:48:53;;;;;;;21.05;10.88;;;-1.20;99.90;;;;;;5020624;28;20095;-76
2022/03/04 07:51:19;;;;;;;19.90;10.02;;;-1.10;99.90;;;;;;5001622;28;20179;-75
2022/03/04 07:53:44;;;;;;;20.00;10.68;;;-0.40;99.90;;;;;;5017107;28;20472;-75
2022/03/04 07:56:10;;;;;;;19.58;10.38;;;-1.00;99.90;;;;;;5003956;28;20133;-74
2022/03/04 07:58:36;;;;;;;22.33;10.95;;;-1.00;99.90;;;;;;5014258;28;20054;-75
2022/03/04 08:01:03;;;;;;;19.60;10.85;;;0.60;99.90;;;;;;5015216;28;20042;-75
2022/03/04 08:03:31;;;;;;;21.08;11.68;;;0.30;99.90;;;;;;5015924;28;20112;-77
2022/03/04 08:05:57;;;;;;;22.10;11.15;;;-0.40;99.90;;;;;;5014946;28;20063;-75
2022/03/04 08:08:22;;;;;;;23.02;11.82;;;-0.80;99.90;;;;;;5014490;28;20542;-75
2022/03/04 08:10:48;;;;;;;18.10;10.65;;;-0.80;99.90;;;;;;5015178;28;20053;-75
2022/03/04 08:13:14;;;;;;;28.55;12.70;;;-0.80;99.90;;;;;;5015408;28;20483;-75
2022/03/04 08:15:40;;;;;;;22.73;11.80;;;-0.80;99.90;;;;;;5017958;28;20086;-75
2022/03/04 08:18:06;;;;;;;24.33;12.85;;;-0.70;99.90;;;;;;5019273;28;20084;-75
2022/03/04 08:20:32;;;;;;;24.10;12.15;;;-0.70;99.90;;;;;;5018907;28;20066;-75
2022/03/04 08:22:58;;;;;;;19.45;11.13;;;-0.60;99.90;;;;;;5006987;28;20046;-75
2022/03/04 08:25:24;;;;;;;22.55;11.88;;;-0.50;99.90;;;;;;5035835;28;20048;-75
2022/03/04 08:27:51;;;;;;;23.05;11.88;;;-0.40;99.90;;;;;;5032865;28;20068;-75
2022/03/04 08:30:16;;;;;;;23.00;11.70;;;-0.20;99.90;;;;;;5017923;28;20065;-75
2022/03/04 08:32:45;;;;;;;26.45;13.60;;;0.70;99.90;;;;;;5017215;28;20491;-75
2022/03/04 08:35:13;;;;;;;25.63;13.65;;;-0.30;99.90;;;;;;5002802;28;20733;-75
2022/03/04 08:37:39;;;;;;;23.35;12.85;;;-0.30;99.90;;;;;;5020285;28;20056;-75
2022/03/04 08:40:08;;;;;;;24.05;11.80;;;0.20;99.90;;;;;;5002928;28;20041;-76
2022/03/04 08:42:35;;;;;;;28.13;11.88;;;-0.10;99.90;;;;;;5018169;28;20057;-75
2022/03/04 08:45:04;;;;;;;33.03;13.20;;;1.10;99.90;;;;;;5021208;28;20057;-76
2022/03/04 08:47:30;;;;;;;20.92;11.68;;;;;;;;;;5002901;28;20132;-75
2022/03/04 08:49:59;;;;;;;26.20;12.68;;;-0.20;99.90;;;;;;5018726;28;20053;-75
2022/03/04 08:52:25;;;;;;;25.90;12.90;;;-0.20;99.90;;;;;;5018707;28;20495;-77
2022/03/04 08:54:51;;;;;;;24.40;12.43;;;-0.10;99.90;;;;;;4989054;28;20096;-74
2022/03/04 08:57:17;;;;;;;24.05;12.60;;;-0.10;99.90;;;;;;5015951;28;20475;-84
2022/03/04 08:59:43;;;;;;;22.77;12.20;;;1.30;99.90;;;;;;5010778;28;20052;-77
2022/03/04 09:02:09;;;;;;;27.73;14.05;;;0.00;99.90;;;;;;5001722;28;20756;-75
2022/03/04 09:04:34;;;;;;;25.48;13.20;;;0.10;99.90;;;;;;5021535;28;20106;-74
2022/03/04 09:07:02;;;;;;;27.33;13.93;;;0.20;99.90;;;;;;5018539;28;20942;-74
2022/03/04 09:09:28;;;;;;;25.48;13.77;;;0.20;99.90;;;;;;5021125;28;20048;-75
2022/03/04 09:11:54;;;;;;;24.67;12.70;;;0.30;99.90;;;;;;5018694;28;20084;-80
2022/03/04 09:14:23;;;;;;;23.83;13.32;;;0.90;99.90;;;;;;5019771;28;20041;-75
2022/03/04 09:16:50;;;;;;;25.90;13.40;;;0.40;99.90;;;;;;5034483;28;20066;-76
2022/03/04 09:19:16;;;;;;;24.17;12.95;;;1.50;99.90;;;;;;5033737;28;20064;-76
2022/03/04 09:21:42;;;;;;;28.35;14.40;;;1.30;99.90;;;;;;5004396;28;20046;-76
2022/03/04 09:24:08;;;;;;;27.20;14.43;;;0.60;99.90;;;;;;5017972;28;20061;-77
2022/03/04 09:26:34;;;;;;;28.80;15.27;;;1.30;99.90;;;;;;5017879;28;20050;-79
2022/03/04 09:28:59;;;;;;;26.77;15.10;;;0.60;99.90;;;;;;5002122;28;20045;-77
2022/03/04 09:31:25;;;;;;;31.83;14.77;;;1.20;99.90;;;;;;5004048;28;20132;-76
2022/03/04 09:33:53;;;;;;;26.52;14.52;;;0.80;99.90;;;;;;5004069;28;20054;-77
2022/03/04 09:36:19;;;;;;;24.08;13.43;;;0.80;99.90;;;;;;5026751;28;20072;-76
2022/03/04 09:38:45;;;;;;;26.73;14.57;;;0.90;99.90;;;;;;5000959;28;20531;-77
2022/03/04 09:41:11;;;;;;;29.67;16.10;;;1.20;99.90;;;;;;5002123;28;20052;-75
2022/03/04 09:43:39;;;;;;;26.88;15.13;;;2.20;99.90;;;;;;5019916;28;20081;-76
2022/03/04 09:46:05;;;;;;;30.05;14.93;;;1.00;99.90;;;;;;5004748;28;20050;-80
2022/03/04 09:48:33;;;;;;;31.95;15.63;;;1.10;99.90;;;;;;5009634;28;20049;-76
2022/03/04 09:50:59;;;;;;;27.48;14.77;;;1.80;99.90;;;;;;5020392;28;20046;-76
2022/03/04 09:53:26;;;;;;;23.42;13.70;;;1.50;99.90;;;;;;5001549;28;20056;-76
2022/03/04 09:55:52;;;;;;;28.17;14.52;;;1.60;99.90;;;;;;5034329;28;20385;-77
2022/03/04 09:58:19;;;;;;;27.92;15.73;;;2.70;99.90;;;;;;5018057;28;20044;-76
2022/03/04 10:00:46;;;;;;;25.77;14.25;;;2.70;99.90;;;;;;5018450;28;20053;-76
2022/03/04 10:03:30;;;;;;;29.13;15.45;;;1.40;99.90;;;;;;5019016;28;20057;-76
2022/03/04 10:05:59;;;;;;;25.02;14.30;;;2.80;99.90;;;;;;5018980;28;20399;-77
2022/03/04 10:08:26;;;;;;;25.90;13.20;;;1.80;99.90;;;;;;5018031;28;20104;-76
2022/03/04 10:10:54;;;;;;;29.55;15.23;;;2.60;99.90;;;;;;5034935;28;20136;-76
2022/03/04 10:13:43;;;;;;;26.98;15.02;;;2.00;99.90;;;;;;5017380;28;20057;-76
2022/03/04 10:16:11;;;;;;;28.60;15.52;;;2.10;99.90;;;;;;5017479;28;20136;-77
2022/03/04 10:18:36;;;;;;;28.83;15.73;;;2.40;99.90;;;;;;5018718;28;20057;-76
2022/03/04 10:21:02;;;;;;;24.77;14.23;;;4.00;99.90;;;;;;5002965;28;20045;-76
2022/03/04 10:23:28;;;;;;;25.50;14.25;;;4.00;99.90;;;;;;5034655;28;20121;-76
2022/03/04 10:25:59;;;;;;;25.92;15.75;;;3.70;99.90;;;;;;5001567;28;20120;-77
2022/03/04 10:28:27;;;;;;;23.95;14.15;;;3.00;99.90;;;;;;5002158;28;20103;-77
2022/03/04 10:30:54;;;;;;;24.00;14.48;;;3.40;99.90;;;;;;5018514;28;20057;-77
2022/03/04 10:33:28;;;;;;;24.15;14.40;;;4.40;99.90;;;;;;5019165;28;20050;-77
2022/03/04 10:36:12;;;;;;;22.85;14.27;;;4.00;99.90;;;;;;5017407;28;20045;-77
2022/03/04 10:38:39;;;;;;;21.48;13.68;;;4.00;99.90;;;;;;5017812;28;20096;-77
2022/03/04 10:41:27;;;;;;;22.95;13.32;;;5.00;99.90;;;;;;5017241;28;20123;-77
2022/03/04 10:43:53;;;;;;;23.95;14.38;;;4.00;99.90;;;;;;5016466;28;20061;-77
2022/03/04 10:46:19;;;;;;;23.02;14.50;;;3.80;99.90;;;;;;4984454;28;20046;-78
2022/03/04 10:48:54;;;;;;;23.02;13.98;;;4.10;99.90;;;;;;5016952;28;20048;-78
2022/03/04 10:51:36;;;;;;;25.73;15.07;;;4.40;99.90;;;;;;5016832;28;20396;-77
2022/03/04 10:54:16;;;;;;;23.75;14.68;;;4.70;99.90;;;;;;5016862;28;20041;-77
2022/03/04 10:57:08;;;;;;;23.77;13.68;;;5.00;99.90;;;;;;5008813;28;20136;-81
2022/03/04 10:59:34;;;;;;;25.88;14.85;;;5.60;99.90;;;;;;5029459;28;20102;-80
2022/03/04 11:02:00;;;;;;;21.58;13.98;;;5.80;99.90;;;;;;5009890;28;20053;-80
2022/03/04 11:04:26;;;;;;;22.13;13.60;;;6.00;99.90;;;;;;5017785;28;20765;-80
2022/03/04 11:06:52;;;;;;;19.80;13.07;;;6.40;99.90;;;;;;5017824;28;20103;-81
2022/03/04 11:09:36;;;;;;;21.23;14.00;;;6.80;99.90;;;;;;5034731;28;20063;-88
2022/03/04 11:12:02;;;;;;;25.02;14.45;;;7.20;99.90;;;;;;5011365;28;20114;-78
2022/03/04 11:14:29;;;;;;;24.85;13.88;;;7.40;99.90;;;;;;5015884;28;20048;-78
2022/03/04 11:16:56;;;;;;;21.13;14.25;;;7.90;99.90;;;;;;4984314;28;20057;-80
2022/03/04 11:19:22;;;;;;;20.95;13.82;;;8.50;99.90;;;;;;5008873;28;20053;-80
2022/03/04 11:21:48;;;;;;;19.60;13.73;;;9.00;99.90;;;;;;5017301;28;20049;-80
2022/03/04 11:24:14;;;;;;;20.52;13.40;;;9.50;99.90;;;;;;4987050;28;20052;-81
2022/03/04 11:26:44;;;;;;;21.13;13.48;;;9.00;99.90;;;;;;5008172;28;20073;-81
2022/03/04 11:32:43;;;;;;;17.20;12.18;;;10.80;99.90;;;;;;4998872;28;20050;-81
2022/03/04 11:35:09;;;;;;;17.10;12.07;;;11.30;99.90;;;;;;5002075;28;20077;-81
2022/03/04 11:37:49;;;;;;;18.92;12.93;;;11.50;99.90;;;;;;5015856;28;20839;-82
2022/03/04 11:40:33;;;;;;;17.70;13.10;;;12.20;99.90;;;;;;5017416;28;20053;-81
2022/03/04 11:42:59;;;;;;;21.10;13.13;;;13.40;99.90;;;;;;5007741;28;20049;-81
2022/03/04 11:45:37;;;;;;;18.52;12.60;;;14.20;99.90;;;;;;5014800;28;20042;-77
2022/03/04 11:48:12;;;;;;;17.13;12.57;;;14.20;99.90;;;;;;5015336;28;20042;-79
2022/03/04 11:50:49;;;;;;;17.02;12.35;;;15.10;99.90;;;;;;5017010;28;20054;-77
2022/03/04 11:53:20;;;;;;;15.80;12.25;;;16.10;99.90;;;;;;5019227;28;20069;-77
2022/03/04 11:56:11;;;;;;;15.88;11.32;;;16.70;99.30;;;;;;5015961;28;20057;-79
2022/03/04 11:59:07;;;;;;;15.63;11.52;;;17.10;94.50;;;;;;5016737;28;20045;-76
2022/03/04 12:01:38;;;;;;;14.20;11.00;;;17.70;95.50;;;;;;4999738;28;20080;-76
2022/03/04 12:04:08;;;;;;;16.38;11.32;;;18.20;95.40;;;;;;5017219;28;20140;-77
2022/03/04 12:06:35;;;;;;;12.85;10.60;;;18.60;94.30;;;;;;5016250;28;20085;-77
2022/03/04 12:09:29;;;;;;;13.00;10.68;;;18.90;92.70;;;;;;5007670;28;20121;-77
2022/03/04 12:12:20;;;;;;;13.77;10.27;;;18.80;79.20;;;;;;5017070;28;20134;-78
2022/03/04 12:14:47;;;;;;;14.75;11.48;;;18.50;74.30;;;;;;5015376;28;20111;-78
2022/03/04 12:17:13;;;;;;;12.73;9.77;;;18.40;90.30;;;;;;5000623;28;20050;-78
2022/03/04 12:19:39;;;;;;;13.25;9.68;;;18.10;88.80;;;;;;5032396;28;20050;-78
2022/03/04 12:22:06;;;;;;;12.30;9.73;;;17.40;83.80;;;;;;5000374;28;20057;-78
2022/03/04 12:24:34;;;;;;;13.38;10.30;;;17.60;89.90;;;;;;5016076;28;20064;-78
2022/03/04 12:27:00;;;;;;;13.45;10.10;;;17.70;91.00;;;;;;5017121;28;20073;-78
2022/03/04 12:29:44;;;;;;;13.40;9.80;;;18.00;90.70;;;;;;5016190;28;20054;-78
2022/03/04 12:32:10;;;;;;;13.57;9.02;;;18.20;81.10;;;;;;5033381;28;20145;-78
2022/03/04 12:34:38;;;;;;;11.35;9.15;;;18.30;89.20;;;;;;5013641;28;20046;-77
2022/03/04 12:37:08;;;;;;;10.95;8.77;;;18.50;89.10;;;;;;5007821;28;20054;-77
2022/03/04 12:39:38;;;;;;;10.10;7.85;;;18.60;85.10;;;;;;5016994;28;20490;-78
2022/03/04 12:42:07;;;;;;;10.60;8.48;;;18.70;83.00;;;;;;5002016;28;20092;-77